Terminal Aerodrome Forecast
Issued by NWS

Home | Current Version | Previous Version | Text Only | Print | Product List | Glossary On
Versions: 1 2 3 4 5 6 7 8 9 10 11 12 13
000
FTUS45 KREV 262300
TAFMMH
TAF
KMMH 262338Z 2700/2724 11008KT P6SM SCT180
     FM270200 VRB03KT P6SM FEW180
     FM272000 22012G20KT P6SM SKC
      AMD NOT SKED 2702/2714=

USA.gov is the U.S. government's official web portal to all federal, state and local government web resources and services.